Time;durP1;ratioP1;P1;durP2;ratioP2;P2;SDS_P1;SDS_P2;PMS_P1;PMS_P2;Temp;Humidity;BMP_temperature;BMP_pressure;BME280_temperature;BME280_humidity;BME280_pressure;Samples;Min_cycle;Max_cycle;Signal;HPM_P1;HPM_P2
2023/09/19 00:08:13;;;;;;;;;;;15.70;99.90;;;;;;21011868;28;19920;-77
2023/09/19 00:18:15;;;;;;;;;;;15.70;99.90;;;;;;21009260;28;20462;-77
2023/09/19 00:28:16;;;;;;;;;;;15.60;99.90;;;;;;21023212;28;19915;-77
2023/09/19 00:38:20;;;;;;;;;;;15.40;99.90;;;;;;21022092;28;20379;-76
2023/09/19 00:48:22;;;;;;;;;;;15.10;99.90;;;;;;21010323;28;20391;-77
2023/09/19 00:58:22;;;;;;;;;;;15.00;99.90;;;;;;21027567;28;20393;-76
2023/09/19 01:08:24;;;;;;;;;;;15.00;99.90;;;;;;21017763;28;19995;-77
2023/09/19 01:18:40;;;;;;;;;;;15.10;99.90;;;;;;21019253;28;20220;-77
2023/09/19 01:29:01;;;;;;;;;;;15.00;99.90;;;;;;21006186;28;19917;-74
2023/09/19 01:39:05;;;;;;;;;;;14.90;99.90;;;;;;21007537;28;19916;-76
2023/09/19 01:49:06;;;;;;;;;;;14.90;99.90;;;;;;21001119;28;19999;-77
2023/09/19 01:59:11;;;;;;;;;;;15.00;99.90;;;;;;21020280;28;19956;-77
2023/09/19 02:09:12;;;;;;;;;;;15.10;99.90;;;;;;20979324;28;19913;-77
2023/09/19 02:19:12;;;;;;;;;;;15.20;99.90;;;;;;20989639;28;20351;-77
2023/09/19 02:29:14;;;;;;;;;;;15.20;99.90;;;;;;20973188;28;19990;-77
2023/09/19 02:39:14;;;;;;;;;;;15.30;99.90;;;;;;21022127;28;19916;-77
2023/09/19 02:49:15;;;;;;;;;;;15.30;99.90;;;;;;21019268;28;20432;-77
2023/09/19 02:59:19;;;;;;;;;;;15.30;99.90;;;;;;21031445;28;19923;-76
2023/09/19 03:09:20;;;;;;;;;;;15.20;99.90;;;;;;21015217;28;19919;-77
2023/09/19 03:19:23;;;;;;;;;;;15.30;99.90;;;;;;21011775;28;20432;-75
2023/09/19 03:29:25;;;;;;;;;;;15.30;99.90;;;;;;21021149;28;20397;-77
2023/09/19 03:39:26;;;;;;;;;;;15.50;99.90;;;;;;21024474;28;19939;-77
2023/09/19 03:49:27;;;;;;;;;;;15.50;99.90;;;;;;21025103;28;19912;-77
2023/09/19 03:59:29;;;;;;;;;;;15.50;99.90;;;;;;21027518;28;19931;-77
2023/09/19 04:09:29;;;;;;;;;;;15.60;99.90;;;;;;21001155;28;19917;-77
2023/09/19 04:19:32;;;;;;;;;;;15.60;99.90;;;;;;21015827;28;20003;-76
2023/09/19 04:29:33;;;;;;;;;;;15.60;99.90;;;;;;21001618;28;19952;-77
2023/09/19 04:39:34;;;;;;;;;;;15.60;99.90;;;;;;21000546;28;19917;-77
2023/09/19 04:49:35;;;;;;;;;;;15.70;99.90;;;;;;21030737;28;19912;-77
2023/09/19 04:59:36;;;;;;;;;;;15.80;99.90;;;;;;21041074;28;19920;-76
2023/09/19 05:09:37;;;;;;;;;;;15.80;99.90;;;;;;21003959;28;19915;-77
2023/09/19 05:19:38;;;;;;;;;;;15.80;99.90;;;;;;21021958;28;19916;-77
2023/09/19 05:29:40;;;;;;;;;;;15.80;99.90;;;;;;21021448;28;19927;-78
2023/09/19 05:39:40;;;;;;;;;;;15.80;99.90;;;;;;21033153;28;19924;-76
2023/09/19 05:49:41;;;;;;;;;;;15.90;99.90;;;;;;21029191;28;19934;-78
2023/09/19 05:59:42;;;;;;;;;;;16.00;99.90;;;;;;21006555;28;20008;-78
2023/09/19 06:09:43;;;;;;;;;;;16.30;99.90;;;;;;21007333;28;19974;-77
2023/09/19 06:19:47;;;;;;;;;;;16.30;99.90;;;;;;21051768;28;19931;-79
2023/09/19 06:29:47;;;;;;;;;;;16.50;99.90;;;;;;21037789;28;19916;-79
2023/09/19 06:39:49;;;;;;;;;;;16.70;99.90;;;;;;21041162;28;19974;-80
2023/09/19 06:49:50;;;;;;;;;;;16.60;99.90;;;;;;21051501;28;19948;-80
2023/09/19 06:59:51;;;;;;;;;;;16.70;99.90;;;;;;21031904;28;19924;-78
2023/09/19 07:09:54;;;;;;;;;;;16.80;99.90;;;;;;21049739;28;19913;-78
2023/09/19 07:19:54;;;;;;;;;;;17.20;99.90;;;;;;21030501;28;19916;-79
2023/09/19 07:29:55;;;;;;;;;;;18.20;99.90;;;;;;21055245;28;19951;-79
2023/09/19 07:39:55;;;;;;;;;;;19.00;99.90;;;;;;21060911;28;19964;-77
2023/09/19 07:49:56;;;;;;;;;;;19.10;99.90;;;;;;21055999;28;19917;-79
2023/09/19 07:59:57;;;;;;;;;;;20.10;99.90;;;;;;21011528;28;20387;-78
2023/09/19 08:09:58;;;;;;;;;;;20.30;99.90;;;;;;21024908;28;19960;-75
2023/09/19 08:20:00;;;;;;;;;;;20.00;99.90;;;;;;21026064;28;20334;-76
2023/09/19 08:30:00;;;;;;;;;;;19.80;99.90;;;;;;21049762;28;19931;-74
2023/09/19 08:40:01;;;;;;;;;;;19.10;99.90;;;;;;21050919;28;19920;-74
2023/09/19 08:50:11;;;;;;;;;;;19.50;99.90;;;;;;21050309;28;20382;-74
2023/09/19 09:00:14;;;;;;;;;;;19.40;99.90;;;;;;21047358;28;19916;-74
2023/09/19 09:10:15;;;;;;;;;;;19.50;99.90;;;;;;21049353;28;20276;-74
2023/09/19 09:20:18;;;;;;;;;;;20.20;99.90;;;;;;21048627;28;20306;-76
2023/09/19 09:30:37;;;;;;;;;;;20.60;99.90;;;;;;21044533;28;20394;-76
2023/09/19 09:40:53;;;;;;;;;;;21.90;99.90;;;;;;21044524;28;20050;-75
2023/09/19 09:51:02;;;;;;;;;;;20.40;99.90;;;;;;21043768;28;20011;-75
2023/09/19 10:01:08;;;;;;;;;;;21.20;99.90;;;;;;21039415;28;19920;-75
2023/09/19 10:11:16;;;;;;;;;;;21.60;99.90;;;;;;21047526;28;19938;-75
2023/09/19 10:21:22;;;;;;;;;;;21.60;99.90;;;;;;21046848;28;20366;-75
2023/09/19 10:31:25;;;;;;;;;;;20.70;99.90;;;;;;21037630;28;19927;-75
2023/09/19 10:41:27;;;;;;;;;;;21.90;99.90;;;;;;21046264;28;19916;-75
2023/09/19 10:51:37;;;;;;;;;;;21.50;99.90;;;;;;21030123;28;19919;-74
2023/09/19 11:01:47;;;;;;;;;;;21.60;99.90;;;;;;21058699;28;20431;-75
2023/09/19 11:11:57;;;;;;;;;;;22.80;99.90;;;;;;21055507;28;20464;-75
2023/09/19 11:21:58;;;;;;;;;;;22.40;99.90;;;;;;21059537;28;19924;-75
2023/09/19 11:32:02;;;;;;;;;;;22.90;99.90;;;;;;21058720;28;19959;-73
2023/09/19 11:42:23;;;;;;;;;;;22.30;99.90;;;;;;21058286;28;19924;-73
2023/09/19 11:52:24;;;;;;;;;;;22.90;99.90;;;;;;21057328;28;20275;-73
2023/09/19 12:02:36;;;;;;;;;;;22.90;99.90;;;;;;21054228;28;20026;-73
2023/09/19 12:12:37;;;;;;;;;;;23.50;99.90;;;;;;21054771;28;19912;-73
2023/09/19 12:22:43;;;;;;;;;;;22.80;99.90;;;;;;21055553;28;19991;-72
2023/09/19 12:32:45;;;;;;;;;;;22.50;99.90;;;;;;21046565;28;19922;-72
2023/09/19 12:42:46;;;;;;;;;;;23.60;99.90;;;;;;21047821;28;19924;-72
2023/09/19 12:52:49;;;;;;;;;;;23.40;99.90;;;;;;21054124;28;19912;-72
2023/09/19 13:03:08;;;;;;;;;;;23.70;99.90;;;;;;21033073;28;20002;-72
2023/09/19 13:13:27;;;;;;;;;;;24.80;99.90;;;;;;21045526;28;19912;-72
2023/09/19 13:23:28;;;;;;;;;;;22.90;99.90;;;;;;21050078;28;19923;-74
2023/09/19 13:33:29;;;;;;;;;;;23.30;99.90;;;;;;21047640;28;19916;-74
2023/09/19 13:43:31;;;;;;;;;;;24.10;99.90;;;;;;21050420;28;20462;-74
2023/09/19 13:53:32;;;;;;;;;;;24.10;99.90;;;;;;21050755;28;19950;-73
2023/09/19 14:03:32;;;;;;;;;;;24.40;99.90;;;;;;21048012;28;20000;-73
2023/09/19 14:13:33;;;;;;;;;;;23.90;99.90;;;;;;21050480;28;20006;-74
2023/09/19 14:23:35;;;;;;;;;;;23.90;99.90;;;;;;21059805;28;20434;-71
2023/09/19 14:33:36;;;;;;;;;;;23.10;99.90;;;;;;21057411;28;19920;-72
2023/09/19 14:43:37;;;;;;;;;;;24.20;99.90;;;;;;21048417;28;19916;-71
2023/09/19 14:53:38;;;;;;;;;;;24.40;99.90;;;;;;21044769;28;19920;-72
2023/09/19 15:03:46;;;;;;;;;;;24.80;99.90;;;;;;21054335;28;20340;-72
2023/09/19 15:13:47;;;;;;;;;;;24.50;99.90;;;;;;21062041;28;19912;-71
2023/09/19 15:23:48;;;;;;;;;;;24.30;99.90;;;;;;21053650;28;20003;-71
2023/09/19 15:33:48;;;;;;;;;;;24.90;99.90;;;;;;21054581;28;19970;-71
2023/09/19 15:43:49;;;;;;;;;;;24.10;99.90;;;;;;21049742;28;20368;-71
2023/09/19 15:53:51;;;;;;;;;;;24.30;99.90;;;;;;21061514;28;19924;-71
2023/09/19 16:03:53;;;;;;;;;;;23.90;99.90;;;;;;21046428;28;19924;-74
2023/09/19 16:13:54;;;;;;;;;;;23.20;99.90;;;;;;21031527;28;19924;-75
2023/09/19 16:23:55;;;;;;;;;;;22.90;99.90;;;;;;21061262;28;19916;-75
2023/09/19 16:33:56;;;;;;;;;;;22.40;99.90;;;;;;21042986;28;19912;-75
2023/09/19 16:43:57;;;;;;;;;;;22.20;99.90;;;;;;21048481;28;19923;-75
2023/09/19 16:53:58;;;;;;;;;;;22.10;99.90;;;;;;21057789;28;19919;-74
2023/09/19 17:04:00;;;;;;;;;;;21.80;99.90;;;;;;21057063;28;19916;-75
2023/09/19 17:14:01;;;;;;;;;;;21.70;99.90;;;;;;21056777;28;19912;-74
2023/09/19 17:24:03;;;;;;;;;;;21.30;99.90;;;;;;21055867;28;19963;-74
2023/09/19 17:34:03;;;;;;;;;;;20.80;99.90;;;;;;21055539;28;19920;-74
2023/09/19 17:44:05;;;;;;;;;;;20.30;99.90;;;;;;21054293;28;20318;-74
2023/09/19 17:54:06;;;;;;;;;;;19.70;99.90;;;;;;21043477;28;20367;-74
2023/09/19 18:04:07;;;;;;;;;;;19.80;99.90;;;;;;20973986;28;19938;-74
2023/09/19 18:14:07;;;;;;;;;;;19.60;99.90;;;;;;20966010;28;19941;-74
2023/09/19 18:24:10;;;;;;;;;;;19.30;99.90;;;;;;20973209;28;19970;-74
2023/09/19 18:34:11;;;;;;;;;;;18.80;99.90;;;;;;20971789;28;19923;-74
2023/09/19 18:44:11;;;;;;;;;;;18.10;99.90;;;;;;20973759;28;20401;-74
2023/09/19 18:54:13;;;;;;;;;;;18.30;99.90;;;;;;20985481;28;19912;-74
2023/09/19 19:04:13;;;;;;;;;;;17.80;99.90;;;;;;20998660;28;19978;-74
2023/09/19 19:14:14;;;;;;;;;;;17.50;99.90;;;;;;21000863;28;19912;-74
2023/09/19 19:24:17;;;;;;;;;;;16.80;99.90;;;;;;20995561;28;19962;-74
2023/09/19 19:34:18;;;;;;;;;;;16.50;99.90;;;;;;20988259;28;19966;-74
2023/09/19 19:44:20;;;;;;;;;;;16.30;99.90;;;;;;20975512;28;19940;-73
2023/09/19 19:54:22;;;;;;;;;;;15.80;99.90;;;;;;20980103;28;19913;-74
2023/09/19 20:04:22;;;;;;;;;;;15.70;99.90;;;;;;20985342;28;20110;-74
2023/09/19 20:14:23;;;;;;;;;;;16.10;99.90;;;;;;20984053;28;19956;-74
2023/09/19 20:24:25;;;;;;;;;;;16.20;99.90;;;;;;20975541;28;19923;-72
2023/09/19 20:34:26;;;;;;;;;;;16.20;99.90;;;;;;20978790;28;19912;-73
2023/09/19 20:44:28;;;;;;;;;;;16.30;99.90;;;;;;20977783;28;19916;-75
2023/09/19 20:54:31;;;;;;;;;;;15.90;99.90;;;;;;20978096;28;19920;-74
2023/09/19 21:04:31;;;;;;;;;;;15.40;99.90;;;;;;20950837;28;19995;-73
2023/09/19 21:14:32;;;;;;;;;;;15.00;99.90;;;;;;20951190;28;20339;-73
2023/09/19 21:24:37;;;;;;;;;;;14.50;99.90;;;;;;20949264;28;19917;-73
2023/09/19 21:34:37;;;;;;;;;;;14.10;99.90;;;;;;20950893;28;20382;-74
2023/09/19 21:44:38;;;;;;;;;;;14.00;99.90;;;;;;20951918;28;19917;-74
2023/09/19 21:54:39;;;;;;;;;;;14.20;99.90;;;;;;20951514;28;19912;-73
2023/09/19 22:04:40;;;;;;;;;;;14.10;99.90;;;;;;20960165;28;19999;-73
2023/09/19 22:14:41;;;;;;;;;;;13.80;99.90;;;;;;20960771;28;20011;-74
2023/09/19 22:24:41;;;;;;;;;;;13.80;99.90;;;;;;20970099;28;20376;-73
2023/09/19 22:34:42;;;;;;;;;;;13.80;99.90;;;;;;21046656;28;19912;-74
2023/09/19 22:44:45;;;;;;;;;;;13.80;99.90;;;;;;21069381;28;19954;-74
2023/09/19 22:54:45;;;;;;;;;;;13.80;99.90;;;;;;21074713;28;19912;-74
2023/09/19 23:04:46;;;;;;;;;;;13.30;99.90;;;;;;21061001;28;19923;-74
2023/09/19 23:14:47;;;;;;;;;;;13.00;99.90;;;;;;20989615;28;19912;-74
2023/09/19 23:25:12;;;;;;;;;;;13.00;99.90;;;;;;21006089;28;19921;-74
2023/09/19 23:35:13;;;;;;;;;;;12.70;99.90;;;;;;21061424;28;19927;-74
2023/09/19 23:45:14;;;;;;;;;;;12.60;99.90;;;;;;21068798;28;19912;-74
2023/09/19 23:55:16;;;;;;;;;;;12.80;99.90;;;;;;21043739;28;19961;-74
